Time;durP1;ratioP1;P1;durP2;ratioP2;P2;SDS_P1;SDS_P2;PMS_P1;PMS_P2;Temp;Humidity;BMP_temperature;BMP_pressure;BME280_temperature;BME280_humidity;BME280_pressure;Samples;Min_cycle;Max_cycle;Signal;HPM_P1;HPM_P2
2022/07/31 00:01:14;;;;;;;2.40;1.48;;;;;;;15.11;49.55;101770.31;5004034;28;20033;-77
2022/07/31 00:03:40;;;;;;;4.55;1.50;;;;;;;15.00;50.12;101762.03;5030064;28;20101;-77
2022/07/31 00:06:06;;;;;;;4.60;1.40;;;;;;;14.96;50.04;101771.84;5022352;28;20037;-77
2022/07/31 00:08:32;;;;;;;4.53;1.42;;;;;;;14.95;50.53;101764.03;5028110;28;20126;-78
2022/07/31 00:10:57;;;;;;;1.83;1.50;;;;;;;15.01;50.39;101771.63;5003425;28;20030;-77
2022/07/31 00:13:23;;;;;;;2.08;1.23;;;;;;;15.00;50.30;101764.69;5012412;28;20054;-76
2022/07/31 00:15:48;;;;;;;4.20;0.95;;;;;;;15.00;50.48;101764.69;5013264;28;20034;-78
2022/07/31 00:18:14;;;;;;;3.47;1.33;;;;;;;15.10;50.66;101765.09;5002031;28;20036;-78
2022/07/31 00:20:39;;;;;;;2.97;1.58;;;;;;;15.16;50.25;101763.06;5007869;28;20044;-78
2022/07/31 00:23:05;;;;;;;2.50;0.85;;;;;;;15.14;50.13;101762.25;5014334;28;20044;-77
2022/07/31 00:25:30;;;;;;;3.22;1.40;;;;;;;15.20;50.19;101763.78;5018459;28;20080;-77
2022/07/31 00:27:56;;;;;;;3.00;1.55;;;;;;;15.23;49.82;101765.44;5002035;28;20702;-79
2022/07/31 00:30:22;;;;;;;3.53;1.40;;;;;;;15.26;49.96;101767.94;5021364;28;20360;-77
2022/07/31 00:32:48;;;;;;;3.15;1.42;;;;;;;15.20;49.70;101758.50;5018402;28;20057;-81
2022/07/31 00:35:13;;;;;;;2.35;1.40;;;;;;;15.30;49.59;101754.53;5014545;28;20254;-77
2022/07/31 00:37:40;;;;;;;3.22;1.33;;;;;;;15.29;49.42;101752.84;4997766;28;20052;-75
2022/07/31 00:40:07;;;;;;;2.47;1.52;;;;;;;15.35;49.22;101743.81;5019612;28;20029;-76
2022/07/31 00:42:32;;;;;;;1.65;1.23;;;;;;;15.42;49.03;101739.97;4994837;28;20045;-76
2022/07/31 00:44:58;;;;;;;1.83;1.08;;;;;;;15.42;48.96;101739.97;5018259;28;20706;-76
2022/07/31 00:47:24;;;;;;;3.25;1.40;;;;;;;15.41;48.65;101748.78;5018149;28;20064;-76
2022/07/31 00:49:50;;;;;;;3.58;1.65;;;;;;;15.39;48.91;101737.47;5024097;28;20824;-76
2022/07/31 00:52:15;;;;;;;3.20;1.60;;;;;;;15.45;48.81;101738.97;5017711;28;20744;-76
2022/07/31 00:54:41;;;;;;;2.25;1.25;;;;;;;15.48;48.52;101730.91;5009072;28;20017;-77
2022/07/31 00:57:06;;;;;;;1.70;1.10;;;;;;;15.39;48.59;101732.19;5010833;28;20487;-76
2022/07/31 00:59:32;;;;;;;4.90;1.50;;;;;;;15.44;47.93;101730.22;5016178;28;20033;-76
2022/07/31 01:01:58;;;;;;;5.00;1.42;;;;;;;15.44;48.11;101730.22;5012085;28;20049;-75
2022/07/31 01:04:25;;;;;;;4.43;1.27;;;;;;;15.46;47.96;101733.66;4998757;28;20034;-76
2022/07/31 01:06:53;;;;;;;5.63;0.85;;;;;;;15.51;47.79;101731.63;5016629;28;20501;-77
2022/07/31 01:09:19;;;;;;;1.73;1.10;;;;;;;15.35;47.54;101733.28;5021999;28;20026;-77
2022/07/31 01:12:08;;;;;;;5.07;1.40;;;;;;;15.30;48.44;101735.25;5031696;28;20091;-76
2022/07/31 01:14:51;;;;;;;4.70;1.58;;;;;;;15.18;48.63;101728.75;5000541;28;20062;-77
2022/07/31 01:17:20;;;;;;;2.58;1.50;;;;;;;15.12;48.66;101729.03;4999326;28;20122;-77
2022/07/31 01:19:48;;;;;;;2.55;1.08;;;;;;;15.13;49.19;101731.59;5007303;28;20033;-77
2022/07/31 01:22:33;;;;;;;2.55;0.98;;;;;;;15.15;49.14;101729.75;5021358;28;20065;-76
2022/07/31 01:25:16;;;;;;;3.35;0.95;;;;;;;15.17;48.71;101722.66;5023193;28;20040;-76
2022/07/31 01:28:08;;;;;;;2.60;1.15;;;;;;;15.18;48.54;101726.13;5019703;28;20042;-79
2022/07/31 01:30:41;;;;;;;1.83;1.25;;;;;;;15.20;48.36;101726.06;5001087;28;20037;-78
2022/07/31 01:33:12;;;;;;;1.77;1.20;;;;;;;15.30;48.23;101722.09;5019918;28;20563;-76
2022/07/31 01:35:44;;;;;;;1.83;1.10;;;;;;;15.50;48.05;101723.78;5021394;28;20071;-76
2022/07/31 01:38:14;;;;;;;2.63;1.70;;;;;;;15.55;47.67;101727.06;5008984;28;20041;-76
2022/07/31 01:40:49;;;;;;;3.63;1.63;;;;;;;15.49;47.33;101722.94;5033711;28;20025;-78
2022/07/31 01:43:21;;;;;;;2.72;1.45;;;;;;;15.37;47.56;101729.66;5004400;28;20045;-78
2022/07/31 01:45:52;;;;;;;4.65;1.40;;;;;;;15.27;47.82;101725.72;5036336;28;20034;-76
2022/07/31 01:48:18;;;;;;;3.65;1.30;;;;;;;15.26;48.08;101724.03;5016121;28;20077;-75
2022/07/31 01:50:47;;;;;;;2.30;1.52;;;;;;;15.27;48.05;101722.25;5035031;28;20036;-76
2022/07/31 01:53:16;;;;;;;2.45;1.48;;;;;;;15.19;47.79;101722.56;5038290;28;20045;-76
2022/07/31 01:55:43;;;;;;;3.75;1.80;;;;;;;15.23;48.14;101725.94;5041181;28;20057;-76
2022/07/31 01:58:10;;;;;;;3.80;1.90;;;;;;;15.16;47.83;101718.28;5024467;28;20041;-77
2022/07/31 02:00:37;;;;;;;2.33;1.42;;;;;;;15.03;48.15;101713.66;5020263;28;20117;-77
2022/07/31 02:03:08;;;;;;;2.13;1.17;;;;;;;15.23;47.87;101721.53;5016413;28;20041;-75
2022/07/31 02:05:35;;;;;;;1.60;1.08;;;;;;;15.21;47.98;101715.44;5017712;28;20584;-75
2022/07/31 02:08:03;;;;;;;2.85;1.60;;;;;;;15.22;48.12;101714.56;5017759;28;20525;-76
2022/07/31 02:10:30;;;;;;;2.25;1.25;;;;;;;15.19;48.00;101704.13;5003155;28;20034;-75
2022/07/31 02:12:58;;;;;;;3.55;1.48;;;;;;;15.19;48.04;101698.84;5003400;28;20129;-77
2022/07/31 02:15:25;;;;;;;1.85;1.20;;;;;;;15.20;47.87;101699.72;5022480;28;20057;-74
2022/07/31 02:17:53;;;;;;;3.13;2.03;;;;;;;15.11;48.03;101696.59;5019754;28;20111;-76
2022/07/31 02:20:23;;;;;;;4.10;1.25;;;;;;;15.08;48.45;101690.59;5018079;28;20043;-76
2022/07/31 02:22:52;;;;;;;3.75;1.25;;;;;;;15.18;48.10;101697.16;5014842;28;20049;-76
2022/07/31 02:25:19;;;;;;;2.72;1.42;;;;;;;15.11;48.66;101696.59;5032415;28;20045;-76
2022/07/31 02:27:45;;;;;;;4.55;1.38;;;;;;;15.14;48.23;101693.81;5029603;28;20046;-76
2022/07/31 02:30:12;;;;;;;3.67;1.38;;;;;;;15.09;48.75;101692.31;5015670;28;20033;-76
2022/07/31 02:32:39;;;;;;;5.72;1.80;;;;;;;15.08;48.20;101695.88;5020834;28;20046;-76
2022/07/31 02:35:06;;;;;;;3.92;1.52;;;;;;;15.03;48.35;101688.19;5000093;28;20029;-76
2022/07/31 02:37:36;;;;;;;3.47;1.52;;;;;;;14.98;48.66;101690.19;5011843;28;20068;-76
2022/07/31 02:40:03;;;;;;;2.60;1.35;;;;;;;14.96;48.54;101687.59;5015251;28;20321;-76
2022/07/31 02:42:29;;;;;;;1.88;1.15;;;;;;;14.92;48.49;101686.03;5022167;28;20045;-76
2022/07/31 02:44:56;;;;;;;2.75;1.30;;;;;;;14.95;48.86;101682.44;5019396;28;20068;-75
2022/07/31 02:47:22;;;;;;;2.88;1.60;;;;;;;15.03;48.79;101680.28;5022359;28;20594;-76
2022/07/31 02:49:48;;;;;;;2.22;1.80;;;;;;;15.08;48.43;101673.06;5023079;28;20044;-76
2022/07/31 02:52:14;;;;;;;2.00;1.00;;;;;;;15.12;48.40;101677.22;5019282;28;20127;-77
2022/07/31 02:54:43;;;;;;;1.48;0.85;;;;;;;15.13;48.63;101671.03;5007132;28;20195;-76
2022/07/31 02:57:09;;;;;;;3.85;1.35;;;;;;;15.14;48.72;101672.75;5006515;28;20045;-76
2022/07/31 02:59:38;;;;;;;3.38;0.98;;;;;;;15.12;48.63;101671.09;5002424;28;20033;-76
2022/07/31 03:02:05;;;;;;;3.58;1.85;;;;;;;15.07;48.79;101668.69;5023649;28;20415;-77
2022/07/31 03:04:38;;;;;;;3.13;1.52;;;;;;;15.03;48.80;101664.50;5020192;28;20132;-75
2022/07/31 03:07:04;;;;;;;3.15;1.33;;;;;;;15.05;48.66;101649.47;5009170;28;20362;-76
2022/07/31 03:09:30;;;;;;;4.03;1.55;;;;;;;15.04;48.69;101662.72;5006825;28;20025;-76
2022/07/31 03:12:33;;;;;;;1.73;1.38;;;;;;;15.04;48.61;101663.59;5020883;28;20041;-76
2022/07/31 03:15:00;;;;;;;2.47;1.70;;;;;;;15.01;48.66;101661.06;5020271;28;20780;-74
2022/07/31 03:17:27;;;;;;;5.70;1.90;;;;;;;14.97;48.83;101662.16;5016417;28;20932;-75
2022/07/31 03:19:56;;;;;;;3.78;1.75;;;;;;;14.94;48.86;101660.50;5015022;28;20041;-76
2022/07/31 03:22:21;;;;;;;2.30;1.25;;;;;;;14.96;48.72;101647.28;5020974;28;20507;-75
2022/07/31 03:24:47;;;;;;;2.25;0.93;;;;;;;14.93;48.55;101652.69;5004165;28;20033;-75
2022/07/31 03:27:13;;;;;;;1.63;1.45;;;;;;;14.88;48.85;101647.66;5023814;28;20095;-76
2022/07/31 03:29:39;;;;;;;2.25;1.20;;;;;;;14.87;48.96;101645.06;5031512;28;20032;-75
2022/07/31 03:32:06;;;;;;;2.65;1.42;;;;;;;14.85;48.83;101657.44;5014635;28;20111;-75
2022/07/31 03:34:32;;;;;;;1.95;1.52;;;;;;;14.84;48.89;101653.97;5017309;28;20025;-76
2022/07/31 03:36:58;;;;;;;1.63;1.38;;;;;;;14.90;48.88;101655.44;5021087;28;20128;-77
2022/07/31 03:39:24;;;;;;;3.60;1.70;;;;;;;14.85;48.92;101652.19;5005630;28;20025;-76
2022/07/31 03:41:51;;;;;;;1.83;1.23;;;;;;;14.95;48.51;101658.75;5016128;28;20021;-76
2022/07/31 03:44:18;;;;;;;5.70;1.20;;;;;;;14.90;48.43;101661.59;5001148;28;20041;-77
2022/07/31 03:46:43;;;;;;;2.38;1.20;;;;;;;14.87;48.50;101661.72;4982838;28;20033;-77
2022/07/31 03:49:09;;;;;;;2.80;1.30;;;;;;;14.92;48.54;101658.88;5002964;28;20036;-76
2022/07/31 03:51:34;;;;;;;2.58;1.58;;;;;;;14.90;48.57;101658.97;5004914;28;20037;-76
2022/07/31 03:54:00;;;;;;;2.63;1.67;;;;;;;15.00;48.05;101662.00;5016106;28;20049;-75
2022/07/31 03:56:50;;;;;;;2.00;1.63;;;;;;;15.00;48.13;101659.38;4985536;28;20503;-76
2022/07/31 03:59:18;;;;;;;2.33;1.55;;;;;;;15.00;47.89;101646.22;5031602;28;20036;-75
2022/07/31 04:01:44;;;;;;;2.80;1.60;;;;;;;15.05;47.70;101646.84;5011331;28;20140;-76
2022/07/31 04:04:17;;;;;;;1.73;1.52;;;;;;;15.08;47.52;101649.34;5018703;28;20076;-75
2022/07/31 04:06:57;;;;;;;2.50;1.27;;;;;;;15.16;47.59;101641.94;5005897;28;20644;-78
2022/07/31 04:09:22;;;;;;;2.45;1.77;;;;;;;15.18;47.48;101641.88;5008505;28;20025;-76
2022/07/31 04:11:48;;;;;;;2.47;1.63;;;;;;;15.23;47.18;101636.41;5021415;28;20399;-77
2022/07/31 04:14:15;;;;;;;6.00;1.75;;;;;;;15.30;46.70;101633.41;5018360;28;20523;-76
2022/07/31 04:16:40;;;;;;;3.28;1.90;;;;;;;15.32;46.63;101626.28;5001055;28;20037;-75
2022/07/31 04:19:07;;;;;;;3.65;1.98;;;;;;;15.32;46.65;101623.66;5008910;28;20021;-76
2022/07/31 04:21:32;;;;;;;2.88;1.58;;;;;;;15.37;46.84;101623.41;5014247;28;20113;-75
2022/07/31 04:23:58;;;;;;;2.60;1.52;;;;;;;15.52;46.76;101624.47;5003359;28;20475;-76
2022/07/31 04:26:44;;;;;;;3.42;1.40;;;;;;;15.50;46.19;101624.53;4997774;28;20055;-76
2022/07/31 04:29:10;;;;;;;2.13;1.60;;;;;;;15.58;46.52;101627.66;5022751;28;20025;-76
2022/07/31 04:31:35;;;;;;;6.97;1.83;;;;;;;15.65;46.22;101622.09;5018461;28;20307;-74
2022/07/31 04:34:03;;;;;;;1.50;1.27;;;;;;;15.70;46.42;101620.06;5019768;28;20564;-77
2022/07/31 04:36:29;;;;;;;2.75;1.70;;;;;;;15.73;45.93;101620.78;5016466;28;20154;-76
2022/07/31 04:38:54;;;;;;;3.28;1.13;;;;;;;15.81;46.21;101617.75;5018813;28;20045;-77
2022/07/31 04:41:20;;;;;;;2.67;1.55;;;;;;;15.85;46.20;101616.66;5022695;28;20099;-76
2022/07/31 04:43:45;;;;;;;3.97;1.38;;;;;;;15.94;45.99;101612.72;4985707;28;20113;-75
2022/07/31 04:46:11;;;;;;;3.72;1.15;;;;;;;16.08;46.10;101620.78;4999337;28;20040;-76
2022/07/31 04:48:37;;;;;;;4.03;2.08;;;;;;;16.05;45.43;101615.69;4997742;28;20041;-76
2022/07/31 04:51:02;;;;;;;4.93;1.42;;;;;;;16.03;45.41;101620.16;5006334;28;20025;-77
2022/07/31 04:53:28;;;;;;;4.32;1.60;;;;;;;15.99;45.84;101619.47;5009625;28;20052;-76
2022/07/31 04:58:37;;;;;;;1.83;0.93;;;;;;;16.13;45.63;101625.81;5012256;28;20050;-74
2022/07/31 05:01:03;;;;;;;3.35;1.70;;;;;;;16.06;45.37;101621.78;4997504;28;20031;-76
2022/07/31 05:03:29;;;;;;;2.22;1.50;;;;;;;16.07;45.28;101615.59;5014575;28;20029;-76
2022/07/31 05:05:55;;;;;;;3.50;1.83;;;;;;;15.94;45.89;101621.47;5013912;28;20155;-76
2022/07/31 05:08:20;;;;;;;4.10;1.30;;;;;;;15.99;45.90;101622.09;4997772;28;20041;-77
2022/07/31 05:13:32;;;;;;;2.53;1.80;;;;;;;16.34;45.64;101608.88;5012669;28;20534;-76
2022/07/31 05:15:57;;;;;;;2.25;1.45;;;;;;;16.68;44.64;101607.06;5019520;28;20034;-77
2022/07/31 05:18:23;;;;;;;2.15;1.30;;;;;;;17.17;43.56;101614.09;5016393;28;20076;-76
2022/07/31 05:21:07;;;;;;;2.00;1.80;;;;;;;17.56;42.98;101610.13;5017044;28;20044;-75
2022/07/31 05:23:48;;;;;;;3.97;2.00;;;;;;;17.95;41.71;101603.44;5013179;28;20038;-75
2022/07/31 05:26:17;;;;;;;1.85;1.30;;;;;;;18.19;41.19;101595.88;5016062;28;20034;-77
2022/07/31 05:28:44;;;;;;;2.92;1.70;;;;;;;18.30;40.75;101603.16;5025695;28;20046;-75
2022/07/31 05:31:09;;;;;;;4.80;1.75;;;;;;;18.50;39.99;101596.59;5010087;28;20085;-75
2022/07/31 05:33:36;;;;;;;4.60;1.95;;;;;;;18.58;40.20;101594.34;5012267;28;20049;-76
2022/07/31 05:36:03;;;;;;;5.80;1.83;;;;;;;18.12;41.01;101599.78;4999097;28;20041;-76
2022/07/31 05:38:28;;;;;;;4.78;2.15;;;;;;;18.49;40.68;101603.69;4997959;28;20061;-76
2022/07/31 05:41:12;;;;;;;3.05;1.88;;;;;;;18.55;40.72;101597.19;5011876;28;20507;-77
2022/07/31 05:43:56;;;;;;;3.78;1.65;;;;;;;18.22;41.28;101595.66;5016437;28;20050;-77
2022/07/31 05:46:33;;;;;;;4.88;1.90;;;;;;;18.49;40.88;101593.09;5001512;28;20029;-75
2022/07/31 05:48:59;;;;;;;4.53;1.80;;;;;;;18.66;41.33;101600.00;5003850;28;20029;-74
2022/07/31 05:51:24;;;;;;;2.35;1.92;;;;;;;18.63;41.17;101597.53;5017251;28;20047;-76
2022/07/31 05:53:50;;;;;;;4.43;1.80;;;;;;;18.60;41.19;101595.09;4998753;28;20033;-75
2022/07/31 05:56:34;;;;;;;9.35;2.00;;;;;;;18.61;41.41;101596.81;5018871;28;20103;-77
2022/07/31 05:59:00;;;;;;;4.45;2.33;;;;;;;18.42;41.31;101594.44;4992789;28;20038;-76
2022/07/31 06:01:26;;;;;;;6.13;1.92;;;;;;;18.37;41.42;101584.16;5005652;28;20029;-76
2022/07/31 06:03:52;;;;;;;3.13;1.63;;;;;;;18.18;42.09;101583.53;5022081;28;20041;-76
2022/07/31 06:06:20;;;;;;;4.50;1.80;;;;;;;18.22;42.11;101578.00;5038211;28;20038;-76
2022/07/31 06:08:45;;;;;;;3.38;2.35;;;;;;;18.32;41.73;101565.06;5028034;28;20055;-74
2022/07/31 06:11:11;;;;;;;2.15;1.15;;;;;;;18.67;41.58;101565.47;5026256;28;20021;-74
2022/07/31 06:13:37;;;;;;;4.93;1.80;;;;;;;18.99;41.39;101570.56;5016625;28;20045;-75
2022/07/31 06:16:14;;;;;;;2.22;1.33;;;;;;;19.21;39.73;101577.94;5019189;28;20044;-76
2022/07/31 06:18:40;;;;;;;1.75;1.20;;;;;;;19.59;39.47;101574.59;5018224;28;20049;-75
2022/07/31 06:21:06;;;;;;;6.13;1.83;;;;;;;19.82;38.32;101578.31;5022703;28;20116;-75
2022/07/31 06:23:31;;;;;;;4.18;1.48;;;;;;;20.08;38.87;101580.97;5029378;28;20038;-76
2022/07/31 06:26:05;;;;;;;2.60;1.35;;;;;;;20.82;36.57;101573.97;5001775;28;20165;-75
2022/07/31 06:28:31;;;;;;;3.83;0.98;;;;;;;21.74;34.71;101567.13;5013718;28;20039;-76
2022/07/31 06:30:56;;;;;;;2.47;1.27;;;;;;;22.77;33.84;101564.38;5011002;28;20033;-76
2022/07/31 06:33:22;;;;;;;1.83;1.05;;;;;;;22.25;34.28;101570.34;4996974;28;20107;-77
2022/07/31 06:35:49;;;;;;;2.13;1.42;;;;;;;21.84;33.66;101561.09;5000702;28;20440;-76
2022/07/31 06:38:40;;;;;;;2.33;1.17;;;;;;;21.22;35.08;101565.75;5009390;28;20034;-77
2022/07/31 06:44:41;;;;;;;2.38;1.00;;;;;;;20.23;37.22;101569.31;5009957;28;20046;-77
2022/07/31 06:47:41;;;;;;;3.10;1.33;;;;;;;20.29;37.46;101568.88;5010259;28;20648;-75
2022/07/31 06:50:16;;;;;;;3.58;1.33;;;;;;;20.20;38.16;101571.31;5001958;28;20041;-76
2022/07/31 06:52:52;;;;;;;6.05;1.30;;;;;;;19.91;38.08;101563.56;5014328;28;20054;-77
2022/07/31 06:55:17;;;;;;;5.22;1.55;;;;;;;19.74;38.64;101556.75;4997516;28;20534;-77
2022/07/31 06:57:43;;;;;;;4.50;1.48;;;;;;;19.77;38.15;101558.34;5009723;28;20034;-75
2022/07/31 07:00:10;;;;;;;1.20;0.80;;;;;;;19.89;38.70;101555.72;5015867;28;20037;-75
2022/07/31 07:02:36;;;;;;;1.73;0.88;;;;;;;20.34;37.95;101547.31;4996638;28;20120;-74
2022/07/31 07:05:02;;;;;;;3.38;1.00;;;;;;;20.32;38.35;101551.88;5017460;28;20116;-77
2022/07/31 07:07:28;;;;;;;5.63;2.63;;;;;;;20.34;38.57;101552.63;5014874;28;20120;-76
2022/07/31 07:09:56;;;;;;;5.07;1.17;;;;;;;20.02;38.64;101549.56;4995214;28;20038;-77
2022/07/31 07:12:41;;;;;;;3.30;1.35;;;;;;;20.05;38.78;101542.22;5006672;28;20046;-76
2022/07/31 07:15:08;;;;;;;4.13;1.02;;;;;;;20.06;38.63;101541.28;5009931;28;20029;-75
2022/07/31 07:17:33;;;;;;;3.38;1.70;;;;;;;20.02;38.16;101541.59;5011340;28;20463;-77
2022/07/31 07:20:00;;;;;;;2.33;1.10;;;;;;;20.09;38.97;101537.56;4994400;28;20123;-76
2022/07/31 07:22:25;;;;;;;6.80;1.98;;;;;;;19.94;37.85;101536.81;5023379;28;20072;-77
2022/07/31 07:24:51;;;;;;;9.00;1.45;;;;;;;19.86;38.30;101540.03;5013896;28;20201;-76
2022/07/31 07:27:20;;;;;;;2.50;1.15;;;;;;;19.78;38.94;101533.53;4996656;28;20072;-76
2022/07/31 07:29:46;;;;;;;5.40;1.35;;;;;;;20.01;38.85;101522.16;4998435;28;20724;-77
2022/07/31 07:32:13;;;;;;;3.70;1.42;;;;;;;19.90;38.53;101527.38;5010528;28;20041;-74
2022/07/31 07:34:41;;;;;;;2.20;1.35;;;;;;;19.76;39.12;101532.78;4997555;28;20041;-76
2022/07/31 07:37:13;;;;;;;4.90;1.63;;;;;;;20.08;38.63;101528.75;5014831;28;20270;-77
2022/07/31 07:39:39;;;;;;;3.00;1.33;;;;;;;19.96;38.72;101526.94;4993299;28;20484;-75
2022/07/31 07:42:04;;;;;;;4.57;1.25;;;;;;;19.92;39.20;101528.97;5010116;28;20106;-77
2022/07/31 07:44:30;;;;;;;2.83;1.67;;;;;;;20.10;39.15;101516.25;4992544;28;20025;-74
2022/07/31 07:46:55;;;;;;;3.05;1.25;;;;;;;20.30;39.03;101517.47;4993846;28;20102;-75
2022/07/31 07:49:21;;;;;;;2.85;1.38;;;;;;;20.30;38.11;101508.69;5014706;28;20033;-76
2022/07/31 07:52:06;;;;;;;1.90;1.20;;;;;;;20.00;38.26;101504.56;4999310;28;20400;-78
2022/07/31 07:54:34;;;;;;;2.88;1.40;;;;;;;21.01;36.24;101499.09;5007549;28;20112;-75
2022/07/31 07:57:19;;;;;;;2.20;1.25;;;;;;;21.12;36.85;101503.59;5007791;28;20055;-78
2022/07/31 08:00:09;;;;;;;5.80;2.35;;;;;;;22.27;35.07;101492.06;5015064;28;20090;-78
2022/07/31 08:02:57;;;;;;;5.38;0.82;;;;;;;24.59;31.95;101474.16;5007390;28;20382;-76
2022/07/31 08:05:22;;;;;;;6.20;1.52;;;;;;;25.85;29.02;101484.72;5008504;28;20240;-76
2022/07/31 08:07:48;;;;;;;3.30;1.58;;;;;;;26.52;29.13;101479.13;5010584;28;20259;-75
2022/07/31 08:10:38;;;;;;;2.92;1.20;;;;;;;25.84;28.46;101477.69;5006168;28;20034;-76
2022/07/31 08:13:10;;;;;;;2.90;0.88;;;;;;;26.24;28.37;101463.09;5013642;28;20758;-74
2022/07/31 08:15:54;;;;;;;2.28;1.15;;;;;;;26.75;27.74;101459.94;5010266;28;20428;-75
2022/07/31 08:18:30;;;;;;;2.30;1.25;;;;;;;26.42;27.27;101454.22;4999390;28;20041;-75
2022/07/31 08:20:56;;;;;;;3.60;1.20;;;;;;;25.70;28.45;101459.41;5013538;28;20502;-78
2022/07/31 08:23:21;;;;;;;5.63;0.90;;;;;;;27.15;27.93;101450.56;5015504;28;20097;-77
2022/07/31 08:25:47;;;;;;;1.27;1.02;;;;;;;28.05;26.04;101449.16;5011823;28;20048;-79
2022/07/31 08:28:13;;;;;;;4.75;1.27;;;;;;;26.47;27.03;101452.78;5013832;28;20780;-79
2022/07/31 08:30:38;;;;;;;2.58;0.85;;;;;;;25.88;28.15;101443.41;5012559;28;20515;-78
2022/07/31 08:33:04;;;;;;;5.60;1.30;;;;;;;25.05;28.95;101459.28;5016139;28;20044;-77
2022/07/31 08:35:33;;;;;;;1.95;1.52;;;;;;;24.38;30.09;101455.56;4998279;28;20070;-77
2022/07/31 08:37:59;;;;;;;4.13;1.38;;;;;;;24.87;29.52;101453.78;5009571;28;20096;-79
2022/07/31 08:40:29;;;;;;;8.27;1.73;;;;;;;25.15;29.50;101464.59;4996714;28;20120;-77
2022/07/31 08:42:55;;;;;;;2.40;1.45;;;;;;;25.57;28.98;101461.56;5006366;28;20133;-77
2022/07/31 08:45:22;;;;;;;2.10;1.33;;;;;;;25.84;28.22;101458.94;5017019;28;20657;-78
2022/07/31 08:48:01;;;;;;;5.30;2.08;;;;;;;26.04;28.11;101456.97;5000085;28;20049;-78
2022/07/31 08:50:34;;;;;;;6.88;1.30;;;;;;;26.88;27.09;101461.22;5009989;28;20056;-79
2022/07/31 08:53:03;;;;;;;6.05;1.55;;;;;;;27.20;26.70;101448.25;4998281;28;20082;-78
2022/07/31 08:56:02;;;;;;;3.40;1.52;;;;;;;27.20;26.09;101461.66;4999982;28;20500;-77
2022/07/31 08:58:28;;;;;;;8.70;2.20;;;;;;;26.27;26.99;101465.50;5013680;28;20045;-77
2022/07/31 09:00:54;;;;;;;3.00;2.35;;;;;;;25.86;29.13;101466.81;5009670;28;20032;-76
2022/07/31 09:03:19;;;;;;;2.10;1.90;;;;;;;25.37;29.84;101468.78;5004050;28;20620;-77
2022/07/31 09:05:56;;;;;;;3.50;1.52;;;;;;;25.56;29.64;101466.09;5021753;28;20630;-76
2022/07/31 09:08:22;;;;;;;1.23;0.90;;;;;;;25.48;29.65;101465.94;4995625;28;20051;-77
2022/07/31 09:11:07;;;;;;;2.97;1.85;;;;;;;25.38;29.92;101460.63;5010185;28;20022;-76
2022/07/31 09:13:58;;;;;;;5.15;1.63;;;;;;;25.47;29.63;101457.06;4993346;28;20108;-77
2022/07/31 09:16:44;;;;;;;4.65;1.80;;;;;;;26.00;28.48;101441.34;4998661;28;20033;-77
2022/07/31 09:19:10;;;;;;;2.53;1.50;;;;;;;25.43;29.62;101442.28;5007562;28;20035;-77
2022/07/31 09:21:43;;;;;;;3.47;2.03;;;;;;;26.18;28.33;101434.25;5007828;28;20108;-76
2022/07/31 09:24:13;;;;;;;2.83;1.80;;;;;;;26.41;28.49;101431.97;5008465;28;20026;-75
2022/07/31 09:26:39;;;;;;;3.03;1.50;;;;;;;27.12;28.21;101430.25;5015019;28;20045;-75
2022/07/31 09:29:11;;;;;;;2.95;2.22;;;;;;;27.05;27.27;101430.00;4993079;28;20480;-75
2022/07/31 09:31:37;;;;;;;5.28;1.40;;;;;;;26.27;28.15;101433.34;5019212;28;20042;-77
2022/07/31 09:34:26;;;;;;;2.80;1.13;;;;;;;26.75;27.98;101433.13;5010963;28;20132;-76
2022/07/31 09:37:19;;;;;;;2.83;1.70;;;;;;;26.43;27.44;101431.81;5016978;28;20219;-76
2022/07/31 09:40:04;;;;;;;3.10;1.33;;;;;;;25.69;28.37;101439.00;5016359;28;20068;-76
2022/07/31 09:42:41;;;;;;;3.75;1.83;;;;;;;25.42;28.41;101440.63;5017231;28;20054;-77
2022/07/31 09:45:20;;;;;;;4.15;1.40;;;;;;;25.07;29.01;101429.72;5018752;28;20037;-75
2022/07/31 09:47:47;;;;;;;6.57;1.98;;;;;;;24.37;29.67;101438.69;4998170;28;20048;-76
2022/07/31 09:50:13;;;;;;;2.40;1.60;;;;;;;24.55;29.68;101436.19;5001940;28;20064;-77
2022/07/31 09:52:39;;;;;;;3.13;1.05;;;;;;;24.67;30.24;101433.41;5008795;28;20057;-76
2022/07/31 09:55:10;;;;;;;7.20;1.30;;;;;;;24.91;29.74;101436.47;5017408;28;20033;-77
2022/07/31 09:57:37;;;;;;;;;;;;;;;25.17;29.77;101433.22;5010719;28;20127;-76
2022/07/31 10:00:08;;;;;;;2.20;1.70;;;;;;;25.25;29.59;101431.50;5002591;28;20039;-75
2022/07/31 10:02:42;;;;;;;4.15;1.88;;;;;;;24.33;30.02;101431.94;5010956;28;20041;-75
2022/07/31 10:05:10;;;;;;;2.47;1.08;;;;;;;24.38;30.36;101423.50;5005094;28;20033;-75
2022/07/31 10:07:37;;;;;;;5.93;1.80;;;;;;;24.85;30.34;101429.00;5012187;28;20543;-75
2022/07/31 10:10:11;;;;;;;1.77;1.67;;;;;;;25.20;30.12;101425.75;5003275;28;20037;-76
2022/07/31 10:12:46;;;;;;;3.47;1.95;;;;;;;24.63;29.90;101422.97;4992805;28;20153;-77
2022/07/31 10:15:16;;;;;;;6.72;2.22;;;;;;;24.41;30.63;101431.22;5012570;28;20037;-78
2022/07/31 10:17:48;;;;;;;4.18;1.80;;;;;;;24.26;30.35;101421.94;5013322;28;20045;-74
2022/07/31 10:20:33;;;;;;;3.13;2.10;;;;;;;24.14;30.98;101423.88;5012018;28;20134;-76
2022/07/31 10:23:21;;;;;;;2.47;1.98;;;;;;;24.09;31.23;101423.47;5009647;28;20045;-75
2022/07/31 10:25:50;;;;;;;5.47;2.25;;;;;;;23.48;32.35;101419.00;5015620;28;20037;-77
2022/07/31 10:28:17;;;;;;;4.03;2.25;;;;;;;23.48;32.23;101419.00;4994863;28;20664;-76
2022/07/31 10:30:45;;;;;;;4.82;2.22;;;;;;;23.17;33.12;101421.63;5015596;28;20141;-77
2022/07/31 10:33:11;;;;;;;4.43;2.17;;;;;;;23.31;33.67;101429.28;5009185;28;20071;-77
2022/07/31 10:36:00;;;;;;;7.93;2.70;;;;;;;22.92;33.92;101413.03;5013250;28;20046;-78
2022/07/31 10:39:01;;;;;;;6.63;2.42;;;;;;;22.62;34.10;101416.41;5002278;28;20404;-77
2022/07/31 10:42:11;;;;;;;4.90;1.75;;;;;;;23.64;34.52;101411.34;5008294;28;20677;-77
2022/07/31 10:44:45;;;;;;;3.03;1.80;;;;;;;23.79;34.30;101411.84;5009916;28;20076;-75
2022/07/31 10:47:19;;;;;;;3.72;1.85;;;;;;;23.42;34.09;101405.22;5007598;28;20033;-75
2022/07/31 10:50:19;;;;;;;5.97;2.45;;;;;;;23.11;35.24;101414.13;4995800;28;20710;-74
2022/07/31 10:53:13;;;;;;;4.07;3.08;;;;;;;22.35;36.65;101414.22;5017853;28;20554;-76
2022/07/31 10:56:09;;;;;;;11.98;3.47;;;;;;;20.97;39.10;101419.72;5003855;28;20329;-74
2022/07/31 10:58:58;;;;;;;10.10;3.58;;;;;;;20.48;40.22;101419.72;5010313;28;20599;-75
2022/07/31 11:01:50;;;;;;;6.60;3.78;;;;;;;21.03;40.07;101417.44;5000726;28;20045;-76
2022/07/31 11:04:38;;;;;;;6.13;3.33;;;;;;;20.13;40.42;101415.16;4998319;28;20208;-77
2022/07/31 11:07:18;;;;;;;10.63;3.65;;;;;;;20.54;40.23;101424.59;5002680;28;20046;-75
2022/07/31 11:10:12;;;;;;;5.72;3.38;;;;;;;20.02;41.81;101427.53;5001214;28;21179;-74
2022/07/31 11:13:09;;;;;;;5.22;3.00;;;;;;;20.59;40.85;101431.38;4997043;28;20583;-73
2022/07/31 11:16:03;;;;;;;6.65;3.10;;;;;;;20.64;41.76;101435.41;4989967;28;20045;-75
2022/07/31 11:18:38;;;;;;;9.48;3.30;;;;;;;20.90;41.28;101436.09;5000349;28;20057;-77
2022/07/31 11:21:10;;;;;;;5.10;3.38;;;;;;;20.43;41.32;101429.84;4999291;28;20029;-75
2022/07/31 11:23:36;;;;;;;9.18;3.88;;;;;;;20.54;41.83;101429.06;5000323;28;20135;-75
2022/07/31 11:26:06;;;;;;;4.68;3.63;;;;;;;20.49;42.01;101426.75;4988202;28;20025;-77
2022/07/31 11:28:34;;;;;;;4.57;3.53;;;;;;;20.77;42.45;101430.00;4999627;28;20053;-76
2022/07/31 11:31:03;;;;;;;6.97;4.00;;;;;;;20.53;41.76;101425.56;5003291;28;20034;-75
2022/07/31 11:33:43;;;;;;;6.55;4.60;;;;;;;20.07;43.70;101426.22;4998251;28;20044;-75
2022/07/31 11:36:13;;;;;;;5.53;4.50;;;;;;;19.98;43.67;101426.88;4988178;28;20120;-75
2022/07/31 11:38:44;;;;;;;5.80;5.15;;;;;;;19.80;44.75;101422.88;5003648;28;20026;-74
2022/07/31 11:41:10;;;;;;;6.53;4.50;;;;;;;20.11;44.08;101426.84;4998763;28;20061;-75
2022/07/31 11:43:38;;;;;;;7.68;4.68;;;;;;;19.89;43.99;101427.53;4993851;28;20084;-75
2022/07/31 11:46:04;;;;;;;7.00;5.50;;;;;;;20.29;43.18;101420.25;5012187;28;20029;-75
2022/07/31 11:48:31;;;;;;;5.90;5.05;;;;;;;20.01;43.87;101420.50;5014990;28;20104;-76
2022/07/31 11:50:58;;;;;;;6.05;5.00;;;;;;;18.75;46.42;101434.41;4993746;28;20042;-76